createdAt,value
2022-08-22T00:01:42.635Z,10.05
2022-08-22T00:04:44.580Z,11.50
2022-08-22T00:07:45.748Z,11.90
2022-08-22T00:10:35.510Z,9.43
2022-08-22T00:13:19.805Z,9.48
2022-08-22T00:16:14.534Z,8.10
2022-08-22T00:18:51.268Z,5.75
2022-08-22T00:21:26.251Z,12.40
2022-08-22T00:24:29.215Z,8.02
2022-08-22T00:27:02.041Z,9.55
2022-08-22T00:29:43.486Z,7.15
2022-08-22T00:32:23.759Z,8.52
2022-08-22T00:35:07.710Z,8.47
2022-08-22T00:37:44.686Z,10.63
2022-08-22T00:40:29.790Z,8.75
2022-08-22T00:43:41.103Z,8.60
2022-08-22T00:49:18.798Z,10.30
2022-08-22T00:52:22.912Z,12.05
2022-08-22T00:55:36.355Z,6.30
2022-08-22T00:58:47.536Z,8.02
2022-08-22T01:01:19.851Z,8.10
2022-08-22T01:03:49.016Z,10.13
2022-08-22T01:06:15.387Z,8.90
2022-08-22T01:09:01.016Z,7.63
2022-08-22T01:11:46.420Z,5.57
2022-08-22T01:14:34.955Z,5.40
2022-08-22T01:17:26.419Z,7.80
2022-08-22T01:20:21.963Z,6.38
2022-08-22T01:23:26.603Z,10.48
2022-08-22T01:26:26.361Z,5.97
2022-08-22T01:29:34.927Z,12.02
2022-08-22T01:32:29.327Z,6.88
2022-08-22T01:35:30.694Z,8.10
2022-08-22T01:38:25.882Z,7.78
2022-08-22T01:41:12.129Z,6.85
2022-08-22T01:44:17.936Z,6.22
2022-08-22T01:47:13.253Z,6.35
2022-08-22T01:49:55.870Z,7.32
2022-08-22T01:52:36.970Z,4.75
2022-08-22T01:55:26.256Z,5.57
2022-08-22T01:57:59.442Z,9.30
2022-08-22T02:00:35.460Z,5.65
2022-08-22T02:03:16.488Z,6.45
2022-08-22T02:05:59.036Z,13.05
2022-08-22T02:08:48.627Z,9.43
2022-08-22T02:11:37.724Z,10.73
2022-08-22T02:14:21.125Z,9.18
2022-08-22T02:17:09.291Z,8.18
2022-08-22T02:19:46.499Z,9.32
2022-08-22T02:22:44.887Z,6.38
2022-08-22T02:25:23.683Z,6.40
2022-08-22T02:27:58.484Z,11.27
2022-08-22T02:30:47.593Z,8.38
2022-08-22T02:33:36.475Z,9.13
2022-08-22T02:36:14.341Z,7.82
2022-08-22T02:38:56.268Z,6.00
2022-08-22T02:41:47.607Z,14.07
2022-08-22T02:44:20.710Z,7.55
2022-08-22T02:47:26.507Z,10.88
2022-08-22T02:50:12.724Z,7.93
2022-08-22T02:52:51.158Z,7.25
2022-08-22T02:55:33.819Z,9.25
2022-08-22T02:58:11.893Z,9.68
2022-08-22T03:00:47.195Z,9.45
2022-08-22T03:03:24.078Z,8.73
2022-08-22T03:06:01.725Z,9.65
2022-08-22T03:08:37.957Z,11.10
2022-08-22T03:11:24.180Z,10.80
2022-08-22T03:14:26.910Z,10.98
2022-08-22T03:17:09.705Z,8.63
2022-08-22T03:20:02.145Z,6.65
2022-08-22T03:22:37.545Z,11.82
2022-08-22T03:25:17.559Z,9.63
2022-08-22T03:27:53.765Z,8.73
2022-08-22T03:30:27.798Z,7.25
2022-08-22T03:33:13.200Z,6.05
2022-08-22T03:35:57.243Z,8.15
2022-08-22T03:38:33.151Z,8.90
2022-08-22T03:41:23.934Z,9.60
2022-08-22T03:44:14.139Z,7.93
2022-08-22T03:47:16.827Z,8.85
2022-08-22T03:50:29.651Z,9.73
2022-08-22T03:53:21.761Z,13.45
2022-08-22T03:56:11.119Z,7.88
2022-08-22T03:59:02.451Z,7.55
2022-08-22T04:01:58.731Z,11.63
2022-08-22T04:05:02.907Z,7.78
2022-08-22T04:08:25.556Z,7.85
2022-08-22T04:11:19.117Z,6.55
2022-08-22T04:14:08.527Z,8.95
2022-08-22T04:17:12.977Z,14.38
2022-08-22T04:20:03.659Z,7.20
2022-08-22T04:23:02.457Z,10.43
2022-08-22T04:25:44.125Z,6.53
2022-08-22T04:28:10.487Z,7.60
2022-08-22T04:30:46.499Z,10.40
2022-08-22T04:33:27.847Z,10.38
2022-08-22T04:36:15.191Z,10.23
2022-08-22T04:39:14.254Z,14.43
2022-08-22T04:42:10.920Z,11.82
2022-08-22T04:44:57.674Z,7.85
2022-08-22T04:47:31.517Z,6.38
2022-08-22T04:50:09.923Z,11.48
2022-08-22T04:52:58.195Z,9.88
2022-08-22T04:55:33.015Z,9.93
2022-08-22T04:58:20.198Z,10.65
2022-08-22T05:01:12.013Z,8.50
2022-08-22T05:03:45.807Z,10.40
2022-08-22T05:06:19.058Z,15.43
2022-08-22T05:08:48.399Z,8.48
2022-08-22T05:11:23.442Z,10.23
2022-08-22T05:13:55.131Z,13.85
2022-08-22T05:16:25.112Z,9.25
2022-08-22T05:19:01.433Z,13.48
2022-08-22T05:21:33.916Z,8.25
2022-08-22T05:24:05.156Z,12.60
2022-08-22T05:26:38.544Z,10.73
2022-08-22T05:29:08.246Z,8.52
2022-08-22T05:31:48.150Z,7.78
2022-08-22T05:34:20.282Z,8.40
2022-08-22T05:36:54.151Z,10.63
2022-08-22T05:39:27.840Z,16.15
2022-08-22T05:42:00.294Z,11.75
2022-08-22T05:44:37.555Z,11.02
2022-08-22T05:47:25.786Z,12.00
2022-08-22T05:50:07.264Z,9.73
2022-08-22T05:53:06.229Z,13.07
2022-08-22T05:55:48.612Z,15.48
2022-08-22T05:58:30.166Z,13.40
2022-08-22T06:01:38.803Z,9.45
2022-08-22T06:04:14.382Z,8.32
2022-08-22T06:06:51.550Z,13.82
2022-08-22T06:09:24.475Z,16.58
2022-08-22T06:12:02.412Z,18.73
2022-08-22T06:14:45.144Z,16.30
2022-08-22T06:17:18.587Z,18.40
2022-08-22T06:19:48.647Z,16.30
2022-08-22T06:22:21.391Z,14.90
2022-08-22T06:24:49.875Z,14.77
2022-08-22T06:27:22.862Z,18.13
2022-08-22T06:29:56.364Z,16.15
2022-08-22T06:32:44.440Z,14.10
2022-08-22T06:35:22.360Z,17.43
2022-08-22T06:37:51.708Z,17.17
2022-08-22T06:40:18.823Z,19.77
2022-08-22T06:42:50.452Z,17.88
2022-08-22T06:45:31.024Z,18.80
2022-08-22T06:48:06.965Z,21.90
2022-08-22T06:50:36.824Z,18.13
2022-08-22T06:53:07.557Z,20.27
2022-08-22T06:55:38.037Z,14.65
2022-08-22T06:58:15.418Z,23.13
2022-08-22T07:00:43.517Z,17.05
2022-08-22T07:04:02.494Z,23.35
2022-08-22T07:06:32.123Z,21.25
2022-08-22T07:08:58.767Z,20.75
2022-08-22T07:11:31.431Z,17.15
2022-08-22T07:14:05.393Z,15.43
2022-08-22T07:16:49.693Z,13.35
2022-08-22T07:19:47.271Z,16.42
2022-08-22T07:22:23.707Z,14.68
2022-08-22T07:24:56.286Z,13.20
2022-08-22T07:27:48.882Z,12.85
2022-08-22T07:30:28.071Z,15.43
2022-08-22T07:33:25.172Z,17.48
2022-08-22T07:35:59.731Z,13.75
2022-08-22T07:38:42.968Z,12.50
2022-08-22T07:41:21.925Z,12.23
2022-08-22T07:44:05.366Z,16.27
2022-08-22T07:46:51.245Z,14.15
2022-08-22T07:49:30.554Z,9.95
2022-08-22T07:52:12.176Z,10.77
2022-08-22T07:55:08.762Z,7.60
2022-08-22T07:57:43.100Z,8.43
2022-08-22T08:00:16.881Z,8.55
2022-08-22T08:02:49.739Z,9.68
2022-08-22T08:05:17.611Z,12.38
2022-08-22T08:07:45.920Z,7.85
2022-08-22T08:10:18.392Z,7.40
2022-08-22T08:13:01.651Z,13.02
2022-08-22T08:15:32.006Z,9.35
2022-08-22T08:18:03.727Z,8.25
2022-08-22T08:20:30.743Z,11.82
2022-08-22T08:22:58.482Z,7.40
2022-08-22T08:25:27.600Z,7.40
2022-08-22T08:28:15.839Z,8.18
2022-08-22T08:30:55.709Z,7.35
2022-08-22T08:33:26.985Z,8.90
2022-08-22T08:36:17.319Z,6.45
2022-08-22T08:38:53.135Z,13.48
2022-08-22T08:41:50.893Z,10.23
2022-08-22T08:44:32.899Z,6.70
2022-08-22T08:47:22.803Z,5.57
2022-08-22T08:50:07.403Z,10.48
2022-08-22T08:53:14.274Z,10.63
2022-08-22T08:55:45.406Z,9.57
2022-08-22T08:58:33.733Z,8.07
2022-08-22T09:01:00.217Z,9.02
2022-08-22T09:03:47.617Z,10.88
2022-08-22T09:06:50.781Z,7.00
2022-08-22T09:10:01.107Z,6.25
2022-08-22T09:12:56.265Z,16.25
2022-08-22T09:16:04.715Z,7.38
2022-08-22T09:19:01.123Z,7.72
2022-08-22T09:22:04.154Z,6.82
2022-08-22T09:24:48.270Z,5.22
2022-08-22T09:27:36.778Z,5.78
2022-08-22T09:30:17.120Z,10.07
2022-08-22T09:33:04.182Z,6.28
2022-08-22T09:36:05.345Z,8.65
2022-08-22T09:38:53.874Z,5.90
2022-08-22T09:41:30.479Z,6.35
2022-08-22T09:44:01.820Z,7.60
2022-08-22T09:46:49.548Z,5.70
2022-08-22T09:49:45.887Z,5.55
2022-08-22T09:52:34.183Z,6.68
2022-08-22T09:55:16.151Z,6.95
2022-08-22T09:57:59.875Z,8.15
2022-08-22T10:00:40.549Z,8.82
2022-08-22T10:03:23.211Z,7.75
2022-08-22T10:06:00.549Z,6.85
2022-08-22T10:08:32.920Z,3.97
2022-08-22T10:11:02.677Z,7.43
2022-08-22T10:13:40.136Z,7.10
2022-08-22T10:16:19.384Z,5.93
2022-08-22T10:19:00.544Z,11.47
2022-08-22T10:21:45.860Z,6.78
2022-08-22T10:24:32.204Z,6.35
2022-08-22T10:27:11.763Z,5.25
2022-08-22T10:29:57.832Z,5.25
2022-08-22T10:32:49.335Z,5.05
2022-08-22T10:35:33.957Z,9.82
2022-08-22T10:38:16.479Z,10.80
2022-08-22T10:41:10.240Z,6.40
2022-08-22T10:44:01.507Z,6.70
2022-08-22T10:46:54.917Z,11.20
2022-08-22T10:49:35.916Z,5.30
2022-08-22T10:52:16.769Z,9.20
2022-08-22T10:54:49.812Z,7.60
2022-08-22T10:57:38.041Z,8.00
2022-08-22T11:00:22.424Z,4.45
2022-08-22T11:03:24.834Z,8.75
2022-08-22T11:05:54.286Z,6.70
2022-08-22T11:08:48.823Z,6.87
2022-08-22T11:11:36.656Z,11.38
2022-08-22T11:14:24.570Z,11.57
2022-08-22T11:16:58.955Z,7.07
2022-08-22T11:19:46.592Z,4.78
2022-08-22T11:22:46.123Z,8.20
2022-08-22T11:25:28.676Z,4.57
2022-08-22T11:28:32.797Z,13.40
2022-08-22T11:31:16.151Z,9.13
2022-08-22T11:33:49.904Z,6.40
2022-08-22T11:36:31.115Z,9.25
2022-08-22T11:39:25.019Z,7.68
2022-08-22T11:42:04.337Z,4.88
2022-08-22T11:44:53.891Z,7.45
2022-08-22T11:47:28.070Z,9.50
2022-08-22T11:50:25.040Z,4.32
2022-08-22T11:53:04.453Z,5.55
2022-08-22T11:55:48.323Z,5.20
2022-08-22T11:58:45.667Z,2.72
2022-08-22T12:01:27.299Z,6.07
2022-08-22T12:04:09.846Z,5.47
2022-08-22T12:07:01.951Z,4.68
2022-08-22T12:09:59.433Z,5.82
2022-08-22T12:12:37.620Z,4.68
2022-08-22T12:15:10.246Z,4.40
2022-08-22T12:18:01.324Z,3.35
2022-08-22T12:20:52.268Z,6.85
2022-08-22T12:23:43.522Z,10.18
2022-08-22T12:26:28.176Z,4.25
2022-08-22T12:29:06.115Z,3.88
2022-08-22T12:32:16.452Z,4.47
2022-08-22T12:35:20.621Z,4.05
2022-08-22T12:38:28.360Z,2.75
2022-08-22T12:41:28.421Z,5.68
2022-08-22T12:44:17.052Z,3.17
2022-08-22T12:47:11.811Z,4.03
2022-08-22T12:50:21.574Z,7.35
2022-08-22T12:53:38.667Z,6.55
2022-08-22T12:56:26.806Z,5.47
2022-08-22T12:59:17.723Z,6.78
2022-08-22T13:01:47.075Z,5.63
2022-08-22T13:04:19.194Z,5.65
2022-08-22T13:07:30.515Z,8.10
2022-08-22T13:10:28.520Z,6.45
2022-08-22T13:12:58.132Z,4.07
2022-08-22T13:18:30.082Z,7.13
2022-08-22T13:21:00.960Z,5.00
2022-08-22T13:23:39.940Z,2.13
2022-08-22T13:26:33.649Z,7.78
2022-08-22T13:29:39.575Z,4.15
2022-08-22T13:32:04.491Z,4.68
2022-08-22T13:34:48.257Z,5.78
2022-08-22T13:37:28.282Z,5.07
2022-08-22T13:40:00.932Z,3.33
2022-08-22T13:42:31.611Z,3.92
2022-08-22T13:47:32.399Z,7.82
2022-08-22T13:50:19.187Z,6.78
2022-08-22T13:53:13.734Z,4.88
2022-08-22T13:55:49.248Z,6.07
2022-08-22T13:58:38.621Z,6.88
2022-08-22T14:01:28.446Z,8.52
2022-08-22T14:04:05.443Z,5.32
2022-08-22T14:06:49.683Z,10.48
2022-08-22T14:09:32.065Z,4.28
2022-08-22T14:12:16.971Z,6.13
2022-08-22T14:14:47.130Z,4.55
2022-08-22T14:17:17.472Z,7.50
2022-08-22T14:22:31.758Z,4.55
2022-08-22T14:25:07.260Z,9.20
2022-08-22T14:27:39.542Z,4.30
2022-08-22T14:30:18.646Z,6.03
2022-08-22T14:32:51.322Z,3.90
2022-08-22T14:35:31.415Z,5.45
2022-08-22T14:38:29.829Z,6.43
2022-08-22T14:41:04.162Z,10.07
2022-08-22T14:43:31.879Z,5.15
2022-08-22T14:46:08.691Z,3.63
2022-08-22T14:48:43.317Z,2.97
2022-08-22T14:51:26.822Z,5.13
2022-08-22T14:54:21.280Z,5.55
2022-08-22T14:56:50.337Z,6.82
2022-08-22T14:59:36.853Z,5.97
2022-08-22T15:02:09.622Z,3.28
2022-08-22T15:04:43.916Z,12.48
2022-08-22T15:07:13.677Z,4.50
2022-08-22T15:09:48.852Z,3.97
2022-08-22T15:12:28.533Z,5.55
2022-08-22T15:15:00.451Z,5.40
2022-08-22T15:17:51.002Z,6.05
2022-08-22T15:20:38.254Z,3.63
2022-08-22T15:23:19.579Z,6.32
2022-08-22T15:25:58.651Z,3.70
2022-08-22T15:28:25.975Z,6.20
2022-08-22T15:30:54.062Z,5.55
2022-08-22T15:33:32.242Z,5.18
2022-08-22T15:36:15.859Z,10.15
2022-08-22T15:38:48.794Z,5.35
2022-08-22T15:41:51.037Z,5.10
2022-08-22T15:44:33.044Z,3.25
2022-08-22T15:47:23.712Z,11.60
2022-08-22T15:49:56.406Z,11.82
2022-08-22T15:52:35.655Z,5.50
2022-08-22T15:55:23.740Z,3.65
2022-08-22T15:58:05.233Z,3.47
2022-08-22T16:00:43.332Z,7.40
2022-08-22T16:03:32.844Z,6.03
2022-08-22T16:06:07.637Z,7.10
2022-08-22T16:08:36.944Z,5.57
2022-08-22T16:11:03.330Z,7.88
2022-08-22T16:13:29.795Z,3.55
2022-08-22T16:16:07.083Z,7.05
2022-08-22T16:18:33.490Z,5.68
2022-08-22T16:21:13.277Z,4.10
2022-08-22T16:24:05.581Z,4.18
2022-08-22T16:26:32.029Z,3.70
2022-08-22T16:29:14.725Z,6.30
2022-08-22T16:31:43.808Z,4.15
2022-08-22T16:34:16.404Z,6.18
2022-08-22T16:37:10.869Z,3.53
2022-08-22T16:39:43.979Z,6.18
2022-08-22T16:42:13.304Z,6.57
2022-08-22T16:44:49.068Z,10.75
2022-08-22T16:47:24.815Z,6.30
2022-08-22T16:49:51.202Z,3.85
2022-08-22T16:52:20.937Z,5.88
2022-08-22T16:54:50.261Z,5.72
2022-08-22T16:57:25.202Z,5.97
2022-08-22T17:00:05.150Z,9.93
2022-08-22T17:03:10.421Z,6.27
2022-08-22T17:06:00.463Z,3.90
2022-08-22T17:08:54.087Z,12.30
2022-08-22T17:11:40.517Z,8.85
2022-08-22T17:14:42.560Z,3.17
2022-08-22T17:17:41.247Z,4.13
2022-08-22T17:20:44.718Z,6.03
2022-08-22T17:23:45.017Z,7.40
2022-08-22T17:26:36.035Z,9.45
2022-08-22T17:29:15.744Z,5.60
2022-08-22T17:31:54.483Z,5.32
2022-08-22T17:34:45.658Z,4.47
2022-08-22T17:37:25.965Z,9.73
2022-08-22T17:40:09.820Z,15.65
2022-08-22T17:43:21.711Z,6.18
2022-08-22T17:46:03.335Z,8.98
2022-08-22T17:49:00.882Z,4.30
2022-08-22T17:51:54.686Z,11.93
2022-08-22T17:54:30.739Z,7.97
2022-08-22T17:57:10.232Z,7.57
2022-08-22T17:59:46.638Z,4.70
2022-08-22T18:02:22.227Z,7.47
2022-08-22T18:05:14.051Z,7.35
2022-08-22T18:07:49.993Z,11.95
2022-08-22T18:10:35.765Z,8.07
2022-08-22T18:13:14.969Z,3.78
2022-08-22T18:15:54.657Z,4.20
2022-08-22T18:18:45.896Z,6.65
2022-08-22T18:21:37.190Z,7.00
2022-08-22T18:24:09.632Z,6.55
2022-08-22T18:26:41.780Z,9.43
2022-08-22T18:29:13.651Z,5.95
2022-08-22T18:32:08.593Z,12.18
2022-08-22T18:35:01.762Z,4.20
2022-08-22T18:37:35.606Z,4.75
2022-08-22T18:40:22.218Z,8.68
2022-08-22T18:42:58.156Z,4.85
2022-08-22T18:45:47.936Z,6.45
2022-08-22T18:48:59.454Z,4.45
2022-08-22T18:51:38.398Z,7.65
2022-08-22T18:54:05.111Z,5.88
2022-08-22T18:56:31.495Z,4.13
2022-08-22T18:59:22.109Z,4.53
2022-08-22T19:01:56.499Z,4.22
2022-08-22T19:04:56.918Z,9.80
2022-08-22T19:07:37.534Z,6.43
2022-08-22T19:10:34.872Z,6.15
2022-08-22T19:13:21.431Z,5.35
2022-08-22T19:16:15.199Z,5.20
2022-08-22T19:18:54.216Z,3.63
2022-08-22T19:21:55.037Z,8.98
2022-08-22T19:24:27.554Z,3.97
2022-08-22T19:27:18.970Z,7.47
2022-08-22T19:29:45.332Z,8.07
2022-08-22T19:32:46.771Z,5.15
2022-08-22T19:35:26.041Z,3.67
2022-08-22T19:38:04.839Z,5.85
2022-08-22T19:40:46.212Z,6.97
2022-08-22T19:43:30.588Z,5.80
2022-08-22T19:45:59.725Z,9.18
2022-08-22T19:48:33.832Z,5.05
2022-08-22T19:51:23.888Z,4.28
2022-08-22T19:54:22.944Z,7.53
2022-08-22T19:57:13.587Z,4.78
2022-08-22T20:00:11.004Z,5.38
2022-08-22T20:02:55.458Z,4.53
2022-08-22T20:05:37.156Z,6.93
2022-08-22T20:08:19.137Z,6.30
2022-08-22T20:11:21.400Z,6.55
2022-08-22T20:13:48.657Z,4.88
2022-08-22T20:16:23.669Z,8.45
2022-08-22T20:19:05.499Z,5.28
2022-08-22T20:21:39.137Z,4.18
2022-08-22T20:24:07.906Z,8.20
2022-08-22T20:26:43.576Z,4.10
2022-08-22T20:29:30.369Z,9.13
2022-08-22T20:31:59.070Z,4.25
2022-08-22T20:34:29.639Z,3.80
2022-08-22T20:37:22.701Z,4.30
2022-08-22T20:40:53.416Z,6.47
2022-08-22T20:43:14.563Z,5.40
2022-08-22T20:46:18.976Z,4.55
2022-08-22T20:48:47.993Z,5.47
2022-08-22T20:51:19.756Z,4.13
2022-08-22T20:53:54.954Z,8.93
2022-08-22T20:56:33.520Z,5.70
2022-08-22T20:59:01.305Z,6.38
2022-08-22T21:01:29.004Z,4.07
2022-08-22T21:03:56.392Z,6.07
2022-08-22T21:06:32.454Z,3.47
2022-08-22T21:09:39.277Z,5.43
2022-08-22T21:12:09.449Z,4.93
2022-08-22T21:14:44.402Z,4.85
2022-08-22T21:17:39.194Z,5.40
2022-08-22T21:20:19.143Z,5.95
2022-08-22T21:22:45.575Z,8.25
2022-08-22T21:25:12.016Z,3.78
2022-08-22T21:27:38.452Z,6.13
2022-08-22T21:30:08.575Z,6.93
2022-08-22T21:32:43.101Z,6.65
2022-08-22T21:35:29.635Z,3.97
2022-08-22T21:37:57.280Z,7.78
2022-08-22T21:40:32.005Z,7.35
2022-08-22T21:43:11.039Z,6.38
2022-08-22T21:45:37.388Z,5.57
2022-08-22T21:48:31.087Z,8.77
2022-08-22T21:51:27.598Z,9.13
2022-08-22T21:54:39.562Z,8.50
2022-08-22T21:57:08.669Z,9.45
2022-08-22T21:59:50.898Z,6.70
2022-08-22T22:02:28.970Z,8.10
2022-08-22T22:04:58.587Z,7.43
2022-08-22T22:07:25.818Z,6.38
2022-08-22T22:09:53.057Z,7.80
2022-08-22T22:12:22.470Z,5.43
2022-08-22T22:14:49.459Z,4.38
2022-08-22T22:17:17.892Z,5.75
2022-08-22T22:19:44.832Z,4.22
2022-08-22T22:22:11.260Z,7.25
2022-08-22T22:24:37.756Z,6.30
2022-08-22T22:27:05.028Z,4.25
2022-08-22T22:29:32.890Z,6.32
2022-08-22T22:31:59.476Z,7.32
2022-08-22T22:34:26.035Z,5.88
2022-08-22T22:36:53.456Z,6.68
2022-08-22T22:39:19.924Z,6.55
2022-08-22T22:41:46.396Z,7.05
2022-08-22T22:44:12.862Z,7.20
2022-08-22T22:46:39.283Z,3.70
2022-08-22T22:49:05.861Z,9.85
2022-08-22T22:51:32.385Z,6.25
2022-08-22T22:53:58.946Z,7.63
2022-08-22T22:56:25.500Z,5.03
2022-08-22T22:58:59.063Z,6.40
2022-08-22T23:01:27.824Z,7.13
2022-08-22T23:04:05.464Z,3.05
2022-08-22T23:06:32.899Z,6.43
2022-08-22T23:08:59.376Z,4.07
2022-08-22T23:11:30.177Z,4.88
2022-08-22T23:13:56.750Z,4.82
2022-08-22T23:16:26.520Z,5.35
2022-08-22T23:18:53.403Z,10.82
2022-08-22T23:21:26.420Z,7.93
2022-08-22T23:23:56.242Z,4.20
2022-08-22T23:26:22.971Z,9.82
2022-08-22T23:28:49.632Z,7.38
2022-08-22T23:31:28.935Z,6.32
2022-08-22T23:33:56.600Z,5.88
2022-08-22T23:36:23.760Z,4.25
2022-08-22T23:38:51.870Z,5.40
2022-08-22T23:41:21.419Z,6.47
2022-08-22T23:43:50.488Z,5.78
2022-08-22T23:46:18.963Z,6.97
2022-08-22T23:48:46.329Z,4.45
2022-08-22T23:51:15.099Z,7.88
2022-08-22T23:53:44.916Z,11.45
2022-08-22T23:56:19.314Z,9.00
2022-08-22T23:58:46.350Z,5.25
